Time;durP1;ratioP1;P1;durP2;ratioP2;P2;SDS_P1;SDS_P2;PMS_P1;PMS_P2;Temp;Humidity;BMP_temperature;BMP_pressure;BME280_temperature;BME280_humidity;BME280_pressure;Samples;Min_cycle;Max_cycle;Signal;HPM_P1;HPM_P2
2023/04/12 00:02:23;;;;;;;3.93;0.90;;;6.90;99.90;;;;;;5012882;28;20193;-79
2023/04/12 00:04:54;;;;;;;3.47;0.90;;;6.70;99.90;;;;;;5012183;28;20255;-80
2023/04/12 00:07:23;;;;;;;7.90;0.90;;;6.70;99.90;;;;;;5011300;28;20721;-80
2023/04/12 00:09:50;;;;;;;5.43;0.70;;;6.60;99.90;;;;;;5013171;28;20200;-80
2023/04/12 00:12:18;;;;;;;7.53;1.03;;;6.60;99.90;;;;;;5012755;28;20200;-78
2023/04/12 00:14:44;;;;;;;3.83;0.80;;;6.80;99.90;;;;;;5012107;28;20174;-77
2023/04/12 00:17:10;;;;;;;9.97;1.20;;;6.70;99.90;;;;;;5011029;28;20187;-78
2023/04/12 00:19:40;;;;;;;5.50;0.90;;;6.70;99.90;;;;;;5012069;28;20189;-78
2023/04/12 00:22:10;;;;;;;5.60;1.27;;;6.70;99.90;;;;;;5013120;28;20198;-78
2023/04/12 00:24:39;;;;;;;7.87;1.03;;;6.60;99.90;;;;;;5011795;28;20603;-76
2023/04/12 00:27:05;;;;;;;2.97;0.77;;;6.60;99.90;;;;;;5013139;28;20190;-77
2023/04/12 00:29:31;;;;;;;8.03;0.87;;;6.50;99.90;;;;;;5021404;28;20181;-77
2023/04/12 00:31:57;;;;;;;7.43;0.90;;;6.20;99.90;;;;;;5029385;28;20203;-77
2023/04/12 00:34:22;;;;;;;6.50;1.00;;;6.30;99.90;;;;;;5023631;28;20166;-75
2023/04/12 00:36:48;;;;;;;8.60;1.47;;;6.20;99.90;;;;;;5018007;28;20193;-74
2023/04/12 00:39:14;;;;;;;6.60;1.03;;;6.00;99.90;;;;;;5012337;28;20183;-75
2023/04/12 00:41:40;;;;;;;11.43;1.43;;;6.10;99.90;;;;;;5013749;28;20214;-74
2023/04/12 00:44:07;;;;;;;12.20;1.50;;;6.30;99.90;;;;;;5012607;28;20186;-74
2023/04/12 00:46:33;;;;;;;11.63;1.53;;;6.10;99.90;;;;;;5005091;28;20335;-73
2023/04/12 00:48:59;;;;;;;8.17;1.10;;;6.30;99.90;;;;;;5011943;28;20684;-74
2023/04/12 00:51:25;;;;;;;11.53;1.63;;;6.30;99.90;;;;;;5013005;28;20392;-74
2023/04/12 00:53:58;;;;;;;6.40;0.80;;;6.40;99.90;;;;;;5012595;28;20660;-75
2023/04/12 00:56:26;;;;;;;4.90;0.70;;;6.40;99.90;;;;;;5012913;28;20218;-74
2023/04/12 00:58:52;;;;;;;6.37;0.90;;;5.70;99.90;;;;;;5012824;28;20209;-73
2023/04/12 01:01:18;;;;;;;8.97;1.30;;;6.00;99.90;;;;;;5012660;28;20210;-74
2023/04/12 01:03:46;;;;;;;10.73;1.63;;;5.90;99.90;;;;;;5013215;28;20533;-74
2023/04/12 01:06:34;;;;;;;8.63;0.97;;;5.70;99.90;;;;;;5010216;28;20175;-75
2023/04/12 01:09:15;;;;;;;9.07;0.90;;;5.80;99.90;;;;;;5013098;28;20198;-76
2023/04/12 01:12:07;;;;;;;10.43;1.03;;;5.70;99.90;;;;;;5005567;28;20265;-76
2023/04/12 01:15:01;;;;;;;9.27;1.10;;;5.60;99.90;;;;;;5008226;28;20182;-74
2023/04/12 01:17:36;;;;;;;10.93;1.20;;;5.40;99.90;;;;;;5012097;28;20174;-74
2023/04/12 01:20:15;;;;;;;5.13;0.70;;;5.40;99.90;;;;;;5005070;28;20206;-74
2023/04/12 01:22:46;;;;;;;8.43;1.30;;;5.40;99.90;;;;;;5011786;28;20225;-74
2023/04/12 01:25:33;;;;;;;10.40;1.10;;;5.40;99.90;;;;;;5009876;28;20209;-73
2023/04/12 01:28:10;;;;;;;12.20;1.07;;;5.40;99.90;;;;;;5009231;28;20274;-75
2023/04/12 01:30:36;;;;;;;7.67;1.10;;;5.50;99.90;;;;;;5011813;28;20193;-74
2023/04/12 01:33:06;;;;;;;9.07;0.97;;;5.60;99.90;;;;;;5012147;28;20265;-74
2023/04/12 01:35:32;;;;;;;12.93;1.30;;;5.60;99.90;;;;;;5011428;28;20186;-74
2023/04/12 01:37:59;;;;;;;11.60;1.33;;;5.60;99.90;;;;;;5011506;28;20190;-75
2023/04/12 01:40:27;;;;;;;10.40;0.90;;;5.60;99.90;;;;;;5010573;28;20218;-75
2023/04/12 01:43:13;;;;;;;13.20;1.30;;;5.60;99.90;;;;;;5010738;28;20182;-74
2023/04/12 01:45:39;;;;;;;11.73;0.97;;;5.60;99.90;;;;;;5011190;28;20191;-74
2023/04/12 01:48:10;;;;;;;7.13;1.00;;;5.60;99.90;;;;;;5011578;28;20558;-73
2023/04/12 01:50:55;;;;;;;7.67;1.23;;;5.60;99.90;;;;;;5010691;28;20186;-75
2023/04/12 01:53:40;;;;;;;15.10;1.60;;;5.50;99.90;;;;;;5010991;28;20183;-75
2023/04/12 01:56:10;;;;;;;7.97;1.10;;;5.40;99.90;;;;;;5009059;28;20681;-74
2023/04/12 01:58:39;;;;;;;8.80;1.07;;;5.60;99.90;;;;;;5011512;28;20214;-74
2023/04/12 02:01:05;;;;;;;11.50;1.30;;;5.60;99.90;;;;;;5010319;28;20218;-73
2023/04/12 02:03:32;;;;;;;10.87;1.70;;;5.70;99.90;;;;;;5011988;28;20182;-74
2023/04/12 02:05:58;;;;;;;7.43;1.10;;;5.70;99.90;;;;;;5009936;28;20316;-72
2023/04/12 02:08:25;;;;;;;11.90;1.10;;;5.70;99.90;;;;;;5009961;28;20174;-75
2023/04/12 02:10:50;;;;;;;8.70;1.20;;;5.80;99.90;;;;;;5010855;28;20221;-74
2023/04/12 02:13:19;;;;;;;9.90;1.20;;;5.90;99.90;;;;;;5011135;28;20210;-74
2023/04/12 02:15:45;;;;;;;8.90;1.30;;;6.00;99.90;;;;;;5011463;28;20247;-75
2023/04/12 02:18:12;;;;;;;10.33;1.37;;;6.00;99.90;;;;;;5011313;28;20265;-74
2023/04/12 02:20:38;;;;;;;9.43;1.23;;;6.00;99.90;;;;;;5011042;28;20218;-75
2023/04/12 02:23:04;;;;;;;12.97;1.37;;;5.90;99.90;;;;;;5010397;28;20197;-78
2023/04/12 02:25:29;;;;;;;8.67;1.40;;;6.00;99.90;;;;;;5009979;28;20180;-74
2023/04/12 02:27:55;;;;;;;11.67;1.63;;;6.00;99.90;;;;;;5007174;28;20262;-74
2023/04/12 02:30:21;;;;;;;12.10;1.47;;;6.00;99.90;;;;;;5011012;28;20663;-74
2023/04/12 02:32:47;;;;;;;9.80;1.33;;;5.90;99.90;;;;;;5009912;28;20188;-74
2023/04/12 02:35:17;;;;;;;14.43;1.43;;;5.90;99.90;;;;;;5010759;28;20179;-75
2023/04/12 02:37:45;;;;;;;9.57;1.53;;;5.90;99.90;;;;;;5006410;28;20652;-74
2023/04/12 02:40:12;;;;;;;14.63;1.73;;;5.90;99.90;;;;;;5009378;28;20202;-74
2023/04/12 02:42:38;;;;;;;15.73;1.50;;;5.80;99.90;;;;;;5010120;28;20205;-74
2023/04/12 02:45:04;;;;;;;10.73;1.37;;;5.80;99.90;;;;;;5010451;28;20171;-73
2023/04/12 02:47:30;;;;;;;10.87;1.20;;;5.70;99.90;;;;;;5009885;28;20297;-74
2023/04/12 02:49:56;;;;;;;7.93;1.40;;;5.70;99.90;;;;;;5010691;28;20669;-76
2023/04/12 02:52:22;;;;;;;15.03;1.20;;;5.50;99.90;;;;;;5010248;28;20182;-74
2023/04/12 02:54:51;;;;;;;9.37;1.40;;;5.70;99.90;;;;;;5010070;28;20205;-74
2023/04/12 02:57:17;;;;;;;10.70;1.47;;;5.60;99.90;;;;;;5009995;28;20284;-73
2023/04/12 02:59:43;;;;;;;9.93;1.50;;;5.40;99.90;;;;;;5010336;28;20190;-73
2023/04/12 03:02:08;;;;;;;9.07;1.50;;;5.60;99.90;;;;;;5010511;28;20210;-74
2023/04/12 03:04:38;;;;;;;16.67;1.10;;;5.60;99.90;;;;;;5009494;28;20205;-74
2023/04/12 03:07:04;;;;;;;9.27;1.17;;;5.50;99.90;;;;;;5002867;28;20244;-74
2023/04/12 03:09:31;;;;;;;10.23;1.10;;;5.60;99.90;;;;;;5009191;28;20178;-73
2023/04/12 03:11:56;;;;;;;6.23;1.40;;;5.50;99.90;;;;;;5011224;28;20189;-75
2023/04/12 03:14:22;;;;;;;8.40;1.20;;;5.50;99.90;;;;;;5013005;28;20627;-74
2023/04/12 03:16:50;;;;;;;5.27;0.70;;;5.60;99.90;;;;;;5013721;28;20670;-74
2023/04/12 03:19:16;;;;;;;7.23;0.70;;;5.50;99.90;;;;;;5013459;28;20288;-75
2023/04/12 03:21:41;;;;;;;11.10;1.00;;;5.20;99.90;;;;;;5012394;28;20650;-74
2023/04/12 03:24:07;;;;;;;10.83;1.00;;;5.50;99.90;;;;;;5012099;28;20182;-74
2023/04/12 03:26:33;;;;;;;15.13;1.53;;;5.40;99.90;;;;;;5012046;28;20183;-74
2023/04/12 03:29:00;;;;;;;6.90;1.30;;;5.50;99.90;;;;;;5012322;28;20175;-75
2023/04/12 03:31:26;;;;;;;4.03;1.13;;;5.50;99.90;;;;;;5011544;28;20182;-75
2023/04/12 03:33:52;;;;;;;7.10;1.20;;;5.60;99.90;;;;;;5010272;28;20205;-76
2023/04/12 03:36:21;;;;;;;11.23;1.30;;;5.50;99.90;;;;;;5012216;28;20195;-78
2023/04/12 03:38:47;;;;;;;9.03;1.03;;;5.70;99.90;;;;;;5012737;28;20681;-77
2023/04/12 03:41:14;;;;;;;5.87;1.47;;;5.70;99.90;;;;;;5012111;28;20221;-77
2023/04/12 03:43:41;;;;;;;12.03;1.57;;;5.70;99.90;;;;;;5013082;28;20309;-77
2023/04/12 03:46:07;;;;;;;7.93;1.27;;;5.80;99.90;;;;;;5011861;28;20194;-77
2023/04/12 03:48:33;;;;;;;10.27;1.20;;;5.80;99.90;;;;;;5011734;28;20178;-75
2023/04/12 03:50:59;;;;;;;9.60;1.13;;;5.80;99.90;;;;;;5013412;28;20185;-75
2023/04/12 03:53:30;;;;;;;9.70;1.33;;;5.80;99.90;;;;;;5012556;28;20178;-75
2023/04/12 03:55:55;;;;;;;11.13;1.47;;;5.80;99.90;;;;;;5019041;28;20307;-76
2023/04/12 03:58:22;;;;;;;13.77;1.27;;;5.60;99.90;;;;;;5021692;28;20182;-77
2023/04/12 04:00:49;;;;;;;4.50;0.83;;;5.60;99.90;;;;;;5022349;28;20304;-77
2023/04/12 04:03:15;;;;;;;6.00;0.60;;;5.40;99.90;;;;;;5023882;28;20206;-75
2023/04/12 04:05:40;;;;;;;4.33;0.70;;;4.90;99.90;;;;;;5025238;28;20182;-76
2023/04/12 04:08:07;;;;;;;5.10;0.63;;;4.90;99.90;;;;;;5024229;28;20189;-75
2023/04/12 04:10:33;;;;;;;4.00;0.70;;;4.80;99.90;;;;;;5023891;28;20205;-75
2023/04/12 04:12:58;;;;;;;2.67;0.80;;;4.80;99.90;;;;;;5025992;28;20210;-75
2023/04/12 04:15:25;;;;;;;1.17;0.30;;;4.80;99.90;;;;;;5025846;28;20615;-76
2023/04/12 04:17:51;;;;;;;3.23;0.80;;;4.70;99.90;;;;;;5021165;28;20179;-75
2023/04/12 04:20:17;;;;;;;4.43;0.60;;;4.80;99.90;;;;;;5017707;28;20249;-75
2023/04/12 04:22:46;;;;;;;4.50;0.70;;;4.80;99.90;;;;;;5012746;28;20892;-76
2023/04/12 04:25:13;;;;;;;6.07;0.80;;;4.70;99.90;;;;;;5013880;28;20178;-76
2023/04/12 04:27:43;;;;;;;4.13;0.90;;;4.80;99.90;;;;;;5014534;28;20182;-86
2023/04/12 04:30:10;;;;;;;6.33;0.97;;;4.70;99.90;;;;;;5040613;28;20243;-89
2023/04/12 04:32:40;;;;;;;3.63;0.73;;;4.80;99.90;;;;;;5024161;28;20175;-80
2023/04/12 04:35:06;;;;;;;10.27;1.30;;;4.80;99.90;;;;;;5016420;28;20178;-76
2023/04/12 04:37:35;;;;;;;3.80;0.87;;;3.60;99.90;;;;;;5023387;28;20190;-79
2023/04/12 04:40:07;;;;;;;9.47;1.03;;;4.70;99.90;;;;;;5020701;28;20265;-78
2023/04/12 04:42:33;;;;;;;8.00;1.40;;;4.90;99.90;;;;;;5016964;28;20191;-77
2023/04/12 04:45:03;;;;;;;9.53;1.17;;;4.90;99.90;;;;;;5012682;28;20174;-78
2023/04/12 04:47:29;;;;;;;9.23;1.20;;;4.90;99.90;;;;;;5009182;28;20225;-77
2023/04/12 04:49:59;;;;;;;6.60;1.33;;;4.90;99.90;;;;;;5010793;28;20295;-77
2023/04/12 04:52:24;;;;;;;7.73;1.10;;;4.90;99.90;;;;;;5008410;28;20186;-77
2023/04/12 04:54:50;;;;;;;3.43;0.77;;;4.90;99.90;;;;;;5013878;28;20179;-77
2023/04/12 04:57:16;;;;;;;2.20;0.53;;;;;;;;;;5015383;28;20218;-76
2023/04/12 04:59:42;;;;;;;3.50;0.77;;;4.70;99.90;;;;;;5013941;28;20189;-77
2023/04/12 05:02:08;;;;;;;4.57;0.37;;;4.90;99.90;;;;;;5016384;28;20689;-76
2023/04/12 05:04:34;;;;;;;2.03;0.50;;;4.70;99.90;;;;;;5015419;28;20665;-76
2023/04/12 05:07:00;;;;;;;3.50;0.60;;;4.90;99.90;;;;;;5015229;28;20178;-76
2023/04/12 05:09:25;;;;;;;7.73;0.70;;;4.90;99.90;;;;;;5014648;28;20185;-77
2023/04/12 05:11:51;;;;;;;6.00;0.90;;;4.90;99.90;;;;;;5014477;28;20178;-77
2023/04/12 05:14:16;;;;;;;6.43;1.10;;;4.90;99.90;;;;;;5015828;28;20269;-77
2023/04/12 05:16:42;;;;;;;6.83;1.07;;;4.90;99.90;;;;;;5016651;28;20560;-76
2023/04/12 05:19:07;;;;;;;6.13;1.20;;;4.90;99.90;;;;;;5015815;28;20187;-76
2023/04/12 05:21:33;;;;;;;10.07;1.20;;;4.80;99.90;;;;;;5014505;28;20731;-76
2023/04/12 05:23:59;;;;;;;9.83;1.20;;;4.80;99.90;;;;;;5008709;28;20543;-76
2023/04/12 05:26:24;;;;;;;5.83;0.60;;;4.90;99.90;;;;;;5013127;28;20645;-77
2023/04/12 05:28:50;;;;;;;4.47;0.40;;;4.90;99.90;;;;;;5012700;28;20210;-76
2023/04/12 05:31:17;;;;;;;6.87;0.50;;;4.80;99.90;;;;;;5015041;28;20536;-77
2023/04/12 05:33:43;;;;;;;3.80;0.93;;;4.80;99.90;;;;;;4997335;28;20237;-75
2023/04/12 05:36:10;;;;;;;3.40;0.90;;;4.60;99.90;;;;;;5011865;28;20189;-75
2023/04/12 05:38:35;;;;;;;4.10;0.93;;;4.80;99.90;;;;;;5012576;28;20187;-76
2023/04/12 05:41:03;;;;;;;6.60;0.90;;;4.80;99.90;;;;;;5013610;28;20260;-76
2023/04/12 05:43:29;;;;;;;9.73;0.83;;;4.90;99.90;;;;;;5013071;28;20190;-75
2023/04/12 05:45:55;;;;;;;9.93;1.00;;;4.70;99.90;;;;;;5011752;28;20190;-75
2023/04/12 05:48:20;;;;;;;8.77;1.27;;;5.00;99.90;;;;;;5012291;28;20187;-75
2023/04/12 05:50:52;;;;;;;10.87;1.00;;;5.00;99.90;;;;;;5012026;28;20182;-76
2023/04/12 05:53:18;;;;;;;4.83;1.00;;;;;;;;;;5014608;28;20190;-77
2023/04/12 05:55:44;;;;;;;4.20;0.70;;;5.00;99.90;;;;;;5013027;28;20735;-76
2023/04/12 05:58:18;;;;;;;11.30;1.40;;;5.20;99.90;;;;;;5068009;28;20555;-77
2023/04/12 06:00:44;;;;;;;3.70;0.63;;;5.20;99.90;;;;;;5067548;28;20238;-79
2023/04/12 06:03:10;;;;;;;5.17;0.83;;;5.50;99.90;;;;;;5067202;28;20172;-77
2023/04/12 06:05:36;;;;;;;10.37;1.10;;;5.40;99.90;;;;;;5059403;28;20741;-77
2023/04/12 06:08:04;;;;;;;8.87;1.73;;;5.50;99.90;;;;;;5066007;28;20209;-77
2023/04/12 06:10:30;;;;;;;6.67;1.00;;;5.60;99.90;;;;;;5067232;28;20185;-77
2023/04/12 06:12:55;;;;;;;7.10;0.90;;;5.60;99.90;;;;;;5067393;28;20179;-79
2023/04/12 06:15:21;;;;;;;7.70;0.90;;;5.70;99.90;;;;;;5065412;28;20263;-77
2023/04/12 06:17:50;;;;;;;11.80;1.50;;;5.80;99.90;;;;;;5074527;28;20216;-77
2023/04/12 06:20:16;;;;;;;9.77;1.20;;;5.70;99.90;;;;;;5066342;28;20185;-77
2023/04/12 06:22:41;;;;;;;10.83;1.30;;;5.90;99.90;;;;;;5073066;28;20216;-78
2023/04/12 06:25:07;;;;;;;6.83;0.97;;;5.70;99.90;;;;;;5071981;28;20521;-79
2023/04/12 06:27:33;;;;;;;8.53;0.83;;;5.60;99.90;;;;;;5070468;28;20237;-77
2023/04/12 06:29:59;;;;;;;7.33;0.80;;;5.50;99.90;;;;;;5072697;28;20246;-78
2023/04/12 06:32:25;;;;;;;9.80;1.03;;;5.40;99.90;;;;;;5073826;28;20251;-76
2023/04/12 06:34:50;;;;;;;3.20;0.60;;;5.30;99.90;;;;;;5077373;28;20191;-78
2023/04/12 06:37:16;;;;;;;5.47;0.73;;;5.80;99.90;;;;;;5086874;28;20224;-79
2023/04/12 06:39:42;;;;;;;5.20;0.60;;;5.20;99.90;;;;;;5084861;28;20185;-74
2023/04/12 06:42:07;;;;;;;6.07;0.83;;;5.00;99.90;;;;;;5079102;28;20176;-77
2023/04/12 06:44:33;;;;;;;11.17;0.90;;;4.90;99.90;;;;;;5078878;28;20196;-83
2023/04/12 06:47:00;;;;;;;2.10;0.40;;;4.80;99.90;;;;;;5086610;28;20188;-80
2023/04/12 06:49:26;;;;;;;6.70;0.63;;;4.90;99.90;;;;;;5088003;28;20217;-80
2023/04/12 06:51:52;;;;;;;6.30;0.60;;;4.70;99.90;;;;;;5081605;28;20173;-79
2023/04/12 06:54:17;;;;;;;4.40;0.50;;;3.20;99.90;;;;;;5076463;28;20236;-79
2023/04/12 06:56:43;;;;;;;1.77;0.43;;;;;;;;;;5091266;28;20300;-78
2023/04/12 06:59:09;;;;;;;3.13;0.70;;;4.80;99.90;;;;;;5081480;28;20189;-76
2023/04/12 07:01:35;;;;;;;8.67;1.10;;;4.80;99.90;;;;;;5079065;28;20202;-78
2023/04/12 07:04:00;;;;;;;6.50;0.83;;;4.90;99.90;;;;;;5080242;28;20215;-77
2023/04/12 07:06:29;;;;;;;8.67;1.20;;;5.00;99.90;;;;;;5082920;28;20260;-77
2023/04/12 07:08:55;;;;;;;4.37;0.70;;;5.40;99.90;;;;;;5073249;28;20179;-79
2023/04/12 07:11:21;;;;;;;9.50;1.20;;;5.30;99.90;;;;;;5070223;28;20174;-77
2023/04/12 07:13:47;;;;;;;9.47;0.87;;;;;;;;;;5070659;28;20195;-83
2023/04/12 07:16:13;;;;;;;9.00;1.03;;;5.70;99.90;;;;;;5073961;28;20200;-78
2023/04/12 07:18:38;;;;;;;4.20;0.70;;;6.00;99.90;;;;;;5067505;28;20358;-81
2023/04/12 07:21:05;;;;;;;7.57;0.60;;;6.20;99.90;;;;;;5077184;28;20248;-82
2023/04/12 07:23:30;;;;;;;12.67;1.10;;;6.20;99.90;;;;;;5078201;28;20177;-85
2023/04/12 07:26:01;;;;;;;6.77;1.03;;;6.30;99.90;;;;;;5078147;28;20197;-80
2023/04/12 07:28:27;;;;;;;7.87;1.00;;;6.20;99.90;;;;;;5075594;28;20204;-77
2023/04/12 07:30:52;;;;;;;6.30;1.57;;;6.20;99.90;;;;;;5072066;28;20166;-78
2023/04/12 07:33:18;;;;;;;7.37;1.00;;;6.10;99.90;;;;;;5067194;28;20196;-77
2023/04/12 07:35:44;;;;;;;2.27;0.70;;;6.10;99.90;;;;;;5067030;28;20208;-77
2023/04/12 07:38:09;;;;;;;9.43;1.43;;;6.10;99.90;;;;;;5068775;28;20243;-77
2023/04/12 07:40:35;;;;;;;2.43;0.40;;;6.10;99.90;;;;;;5071720;28;20177;-77
2023/04/12 07:43:00;;;;;;;3.10;0.80;;;6.20;99.90;;;;;;5072410;28;20196;-80
2023/04/12 07:45:27;;;;;;;4.23;0.70;;;;;;;;;;5075101;28;20256;-81
2023/04/12 07:47:52;;;;;;;3.07;0.80;;;6.50;99.90;;;;;;5056960;28;20241;-78
2023/04/12 07:50:18;;;;;;;4.93;0.83;;;6.60;99.90;;;;;;5070893;28;20173;-79
2023/04/12 07:52:44;;;;;;;5.47;0.97;;;;;;;;;;5064887;28;20185;-77
2023/04/12 07:55:10;;;;;;;2.07;0.47;;;;;;;;;;5061030;28;20250;-77
2023/04/12 07:57:36;;;;;;;6.80;1.00;;;6.70;99.90;;;;;;5066699;28;20221;-73
2023/04/12 08:00:04;;;;;;;5.23;0.60;;;6.90;99.90;;;;;;5058824;28;20193;-75
2023/04/12 08:02:30;;;;;;;9.97;1.10;;;7.30;99.90;;;;;;5063241;28;20177;-69
2023/04/12 08:04:55;;;;;;;5.87;0.80;;;6.70;99.90;;;;;;5059402;28;20659;-69
2023/04/12 08:07:22;;;;;;;2.30;0.43;;;7.10;99.90;;;;;;5062083;28;20202;-70
2023/04/12 08:09:48;;;;;;;6.97;0.70;;;7.10;99.90;;;;;;5055006;28;20177;-69
2023/04/12 08:12:14;;;;;;;2.17;0.50;;;8.80;99.90;;;;;;5054422;28;20299;-69
2023/04/12 08:14:40;;;;;;;4.70;0.83;;;9.10;99.90;;;;;;5053526;28;20173;-69
2023/04/12 08:17:05;;;;;;;7.27;1.03;;;9.50;99.90;;;;;;5051272;28;20248;-71
2023/04/12 08:19:31;;;;;;;4.73;0.87;;;9.60;99.90;;;;;;5050608;28;20636;-71
2023/04/12 08:21:57;;;;;;;7.53;1.27;;;9.80;99.90;;;;;;5050365;28;20275;-71
2023/04/12 08:24:22;;;;;;;3.33;0.70;;;9.80;99.90;;;;;;5048667;28;20191;-71
2023/04/12 08:26:50;;;;;;;2.20;0.70;;;10.00;99.90;;;;;;5049275;28;20826;-70
2023/04/12 08:29:15;;;;;;;3.60;0.57;;;9.90;99.90;;;;;;5051381;28;20208;-71
2023/04/12 08:31:41;;;;;;;1.33;0.40;;;;;;;;;;5051330;28;20227;-70
2023/04/12 08:34:07;;;;;;;8.13;0.40;;;10.10;99.90;;;;;;5050700;28;20177;-72
2023/04/12 08:36:33;;;;;;;6.97;1.50;;;10.60;99.90;;;;;;5049909;28;20235;-71
2023/04/12 08:39:01;;;;;;;6.97;0.80;;;10.90;99.90;;;;;;5046239;28;20252;-72
2023/04/12 08:41:28;;;;;;;8.73;1.47;;;10.70;99.90;;;;;;5045517;28;20169;-71
2023/04/12 08:43:57;;;;;;;8.07;1.27;;;10.90;99.90;;;;;;5049428;28;20181;-73
2023/04/12 08:46:22;;;;;;;11.30;1.87;;;10.70;99.90;;;;;;5050123;28;20173;-71
2023/04/12 08:48:52;;;;;;;7.33;1.00;;;10.90;99.90;;;;;;5041499;28;20196;-71
2023/04/12 08:51:20;;;;;;;11.00;2.17;;;10.20;99.90;;;;;;5045539;28;20199;-71
2023/04/12 08:53:46;;;;;;;16.33;1.20;;;10.40;99.90;;;;;;5049738;28;20672;-71
2023/04/12 08:56:12;;;;;;;3.30;1.07;;;10.70;99.90;;;;;;5048881;28;20252;-71
2023/04/12 08:58:45;;;;;;;18.90;1.27;;;10.90;99.90;;;;;;5048113;28;20264;-71
2023/04/12 09:01:15;;;;;;;10.23;1.70;;;9.90;99.90;;;;;;5050018;28;20182;-72
2023/04/12 09:03:45;;;;;;;7.63;1.27;;;8.90;99.90;;;;;;5048897;28;20193;-72
2023/04/12 09:06:11;;;;;;;9.30;1.30;;;8.90;99.90;;;;;;5050957;28;20264;-71
2023/04/12 09:08:49;;;;;;;12.27;1.70;;;8.50;99.90;;;;;;5049511;28;20553;-73
2023/04/12 09:11:23;;;;;;;5.83;0.83;;;8.50;99.90;;;;;;5048945;28;20690;-70
2023/04/12 09:13:49;;;;;;;8.47;1.33;;;9.10;99.90;;;;;;5049930;28;20200;-70
2023/04/12 09:16:15;;;;;;;8.70;1.43;;;10.80;99.90;;;;;;5048824;28;20212;-72
2023/04/12 09:18:48;;;;;;;12.70;1.53;;;10.90;99.90;;;;;;5049256;28;20227;-71
2023/04/12 09:21:14;;;;;;;14.83;1.60;;;10.80;99.90;;;;;;5049818;28;20192;-71
2023/04/12 09:23:39;;;;;;;5.17;0.90;;;10.10;99.90;;;;;;5049007;28;20177;-71
2023/04/12 09:26:07;;;;;;;6.67;1.20;;;9.60;99.90;;;;;;5047654;28;20170;-71
2023/04/12 09:28:32;;;;;;;6.73;1.47;;;9.40;99.90;;;;;;5048367;28;20215;-72
2023/04/12 09:30:59;;;;;;;10.73;1.40;;;9.30;99.90;;;;;;5043938;28;20197;-71
2023/04/12 09:33:38;;;;;;;4.67;1.27;;;10.30;99.90;;;;;;5049400;28;20181;-71
2023/04/12 09:36:07;;;;;;;4.50;0.60;;;10.10;99.90;;;;;;5046935;28;20161;-71
2023/04/12 09:38:35;;;;;;;13.50;1.50;;;9.70;99.90;;;;;;5046993;28;20549;-70
2023/04/12 09:41:16;;;;;;;24.90;2.17;;;9.80;99.90;;;;;;5041596;28;20180;-72
2023/04/12 09:43:43;;;;;;;7.47;1.20;;;9.30;99.90;;;;;;5047368;28;20180;-72
2023/04/12 09:46:11;;;;;;;5.00;1.10;;;7.10;99.90;;;;;;5044184;28;20239;-70
2023/04/12 09:48:40;;;;;;;8.40;1.87;;;9.20;99.90;;;;;;5045665;28;20189;-71
2023/04/12 09:51:07;;;;;;;11.17;1.87;;;9.30;99.90;;;;;;5053272;28;20235;-71
2023/04/12 09:53:40;;;;;;;8.00;1.80;;;9.40;99.90;;;;;;5049954;28;20670;-71
2023/04/12 09:56:08;;;;;;;3.27;0.60;;;9.60;99.90;;;;;;5049626;28;20189;-72
2023/04/12 09:58:36;;;;;;;5.77;1.50;;;9.40;99.90;;;;;;5050320;28;20177;-71
2023/04/12 10:01:03;;;;;;;14.67;1.40;;;9.60;99.90;;;;;;5049342;28;20177;-70
2023/04/12 10:03:29;;;;;;;16.90;1.67;;;8.90;99.90;;;;;;5050325;28;20176;-72
2023/04/12 10:05:54;;;;;;;10.50;1.60;;;9.10;99.90;;;;;;5050105;28;20184;-71
2023/04/12 10:08:25;;;;;;;9.63;1.80;;;10.70;99.90;;;;;;5042175;28;20177;-71
2023/04/12 10:10:53;;;;;;;8.27;1.10;;;8.60;99.90;;;;;;5048850;28;20188;-71
2023/04/12 10:13:20;;;;;;;6.03;1.00;;;8.50;99.90;;;;;;5050269;28;20181;-72
2023/04/12 10:15:48;;;;;;;6.83;1.07;;;8.00;99.90;;;;;;5050426;28;20181;-71
2023/04/12 10:18:17;;;;;;;13.10;1.40;;;7.80;99.90;;;;;;5050417;28;20216;-70
2023/04/12 10:20:42;;;;;;;5.43;0.63;;;7.50;99.90;;;;;;5049667;28;20219;-70
2023/04/12 10:23:09;;;;;;;11.17;1.53;;;7.60;99.90;;;;;;5049431;28;20184;-70
2023/04/12 10:25:38;;;;;;;7.00;1.50;;;7.80;99.90;;;;;;5049915;28;20679;-71
2023/04/12 10:28:14;;;;;;;7.43;1.23;;;7.90;99.90;;;;;;5049992;28;20173;-71
2023/04/12 10:30:40;;;;;;;2.53;1.53;;;7.90;99.90;;;;;;5048968;28;20303;-71
2023/04/12 10:33:11;;;;;;;7.53;0.80;;;8.40;99.90;;;;;;5049089;28;20457;-71
2023/04/12 10:35:53;;;;;;;8.67;1.43;;;8.10;99.90;;;;;;5049376;28;20256;-71
2023/04/12 10:38:20;;;;;;;11.97;1.07;;;8.30;99.90;;;;;;5048861;28;20234;-71
2023/04/12 10:41:21;;;;;;;9.30;1.27;;;8.50;99.90;;;;;;5048445;28;20192;-72
2023/04/12 10:43:52;;;;;;;5.70;1.20;;;8.80;99.90;;;;;;5044352;28;20291;-71
2023/04/12 10:46:39;;;;;;;7.90;1.17;;;9.80;99.90;;;;;;5053030;28;20252;-72
2023/04/12 10:49:15;;;;;;;12.30;1.40;;;9.40;99.90;;;;;;5053208;28;20651;-70
2023/04/12 10:52:01;;;;;;;7.87;1.47;;;8.50;99.90;;;;;;5052380;28;20173;-70
2023/04/12 10:54:27;;;;;;;13.40;1.23;;;;;;;;;;5054038;28;20176;-71
2023/04/12 10:56:52;;;;;;;6.57;1.17;;;8.30;99.90;;;;;;5054476;28;20217;-72
2023/04/12 10:59:19;;;;;;;12.83;2.10;;;8.10;99.90;;;;;;5055739;28;20203;-72
2023/04/12 11:02:06;;;;;;;14.10;1.50;;;7.90;99.90;;;;;;5054858;28;20196;-71
2023/04/12 11:04:32;;;;;;;10.93;1.10;;;7.90;99.90;;;;;;5050707;28;20172;-71
2023/04/12 11:07:00;;;;;;;12.13;1.70;;;7.70;99.90;;;;;;5053559;28;20260;-71
2023/04/12 11:09:32;;;;;;;8.53;1.00;;;7.10;99.90;;;;;;5052663;28;20177;-71
2023/04/12 11:12:03;;;;;;;5.53;0.77;;;6.90;99.90;;;;;;5050823;28;20276;-73
2023/04/12 11:14:37;;;;;;;4.87;0.50;;;6.70;99.90;;;;;;5051926;28;20169;-73
2023/04/12 11:17:05;;;;;;;4.10;0.93;;;6.30;99.90;;;;;;5049592;28;20216;-72
2023/04/12 11:19:37;;;;;;;3.07;0.70;;;6.20;99.90;;;;;;5046787;28;20176;-73
2023/04/12 11:22:04;;;;;;;1.23;0.30;;;6.20;99.90;;;;;;5050892;28;20675;-73
2023/04/12 11:24:30;;;;;;;5.47;0.63;;;6.00;99.90;;;;;;5051489;28;20192;-72
2023/04/12 11:26:56;;;;;;;2.10;0.60;;;6.00;99.90;;;;;;5053037;28;20185;-70
2023/04/12 11:29:28;;;;;;;8.93;1.30;;;6.00;99.90;;;;;;5049505;28;20303;-71
2023/04/12 11:31:54;;;;;;;1.97;0.20;;;6.30;99.90;;;;;;5050888;28;20177;-70
2023/04/12 11:34:21;;;;;;;7.63;0.87;;;6.40;99.90;;;;;;5049097;28;20551;-70
2023/04/12 11:36:50;;;;;;;1.53;0.47;;;7.40;99.90;;;;;;5050552;28;20201;-69
2023/04/12 11:39:17;;;;;;;2.10;0.50;;;8.70;99.90;;;;;;5050822;28;20185;-70
2023/04/12 11:41:46;;;;;;;2.03;0.60;;;9.40;99.90;;;;;;5047913;28;20178;-70
2023/04/12 11:44:13;;;;;;;4.00;0.43;;;9.80;99.90;;;;;;5050299;28;20188;-69
2023/04/12 11:46:39;;;;;;;2.60;0.60;;;9.90;99.90;;;;;;5052105;28;20176;-68
2023/04/12 11:49:05;;;;;;;1.80;0.37;;;10.40;99.90;;;;;;5051620;28;20181;-69
2023/04/12 11:51:31;;;;;;;1.27;0.33;;;10.40;99.90;;;;;;5051547;28;20176;-70
2023/04/12 11:53:57;;;;;;;5.93;0.60;;;10.10;99.90;;;;;;5051081;28;20173;-70
2023/04/12 11:56:24;;;;;;;2.00;0.53;;;11.00;99.90;;;;;;5051053;28;20205;-70
2023/04/12 11:58:50;;;;;;;2.63;0.50;;;11.00;99.90;;;;;;5051938;28;20799;-69
2023/04/12 12:01:18;;;;;;;5.03;1.03;;;12.20;99.90;;;;;;5051681;28;20173;-70
2023/04/12 12:03:44;;;;;;;6.90;1.17;;;12.00;99.90;;;;;;5051751;28;20184;-70
2023/04/12 12:06:10;;;;;;;4.10;0.70;;;11.30;99.90;;;;;;5046956;28;20254;-70
2023/04/12 12:08:37;;;;;;;5.47;0.90;;;11.80;99.90;;;;;;5050281;28;20184;-71
2023/04/12 12:11:03;;;;;;;3.97;0.70;;;11.10;99.90;;;;;;5045623;28;20174;-70
2023/04/12 12:13:51;;;;;;;7.47;0.80;;;9.70;99.90;;;;;;5051332;28;20635;-69
2023/04/12 12:16:22;;;;;;;3.53;0.80;;;9.00;99.90;;;;;;5050420;28;20204;-71
2023/04/12 12:18:48;;;;;;;7.57;1.40;;;9.00;99.90;;;;;;5049690;28;20177;-70
2023/04/12 12:21:15;;;;;;;1.83;0.93;;;8.80;99.90;;;;;;5050046;28;20177;-71
2023/04/12 12:23:45;;;;;;;2.27;0.43;;;8.00;99.90;;;;;;5029064;28;20636;-70
2023/04/12 12:26:22;;;;;;;2.50;0.67;;;7.50;99.90;;;;;;5049246;28;20209;-71
2023/04/12 12:28:50;;;;;;;2.60;0.73;;;7.30;99.90;;;;;;5044553;28;20177;-72
2023/04/12 12:31:20;;;;;;;5.73;0.40;;;7.30;99.90;;;;;;5050569;28;20195;-72
2023/04/12 12:33:45;;;;;;;4.60;0.90;;;7.30;99.90;;;;;;5043208;28;20177;-71
2023/04/12 12:36:12;;;;;;;9.73;0.97;;;7.20;99.90;;;;;;5048228;28;20220;-70
2023/04/12 12:38:39;;;;;;;3.33;0.43;;;7.50;99.90;;;;;;5050293;28;20708;-71
2023/04/12 12:41:24;;;;;;;1.27;0.50;;;7.70;99.90;;;;;;5051184;28;20652;-71
2023/04/12 12:43:51;;;;;;;6.37;0.83;;;7.50;99.90;;;;;;5043773;28;20747;-71
2023/04/12 12:46:19;;;;;;;2.77;0.67;;;7.50;99.90;;;;;;5051367;28;20252;-71
2023/04/12 12:48:45;;;;;;;5.70;1.17;;;7.50;99.90;;;;;;5045965;28;20672;-71
2023/04/12 12:51:16;;;;;;;4.67;0.67;;;7.40;99.90;;;;;;5049270;28;20179;-71
2023/04/12 12:53:42;;;;;;;7.37;1.00;;;7.30;99.90;;;;;;5050667;28;20209;-72
2023/04/12 12:56:10;;;;;;;4.43;0.93;;;7.40;99.90;;;;;;5048507;28;20268;-70
2023/04/12 12:58:36;;;;;;;3.20;0.77;;;7.30;99.90;;;;;;5049050;28;20271;-72
2023/04/12 13:01:03;;;;;;;3.10;0.50;;;4.90;99.90;;;;;;5051241;28;20181;-71
2023/04/12 13:03:29;;;;;;;5.90;1.00;;;;;;;;;;5052134;28;20208;-70